sensor_id;sensor_type;location;lat;lon;timestamp;temperature;humidity
5870;DHT22;2961;47.702;9.410;2022-08-19T00:01:19;17.70;99.90
5870;DHT22;2961;47.702;9.410;2022-08-19T00:03:48;17.70;99.90
5870;DHT22;2961;47.702;9.410;2022-08-19T00:06:15;17.70;99.90
5870;DHT22;2961;47.702;9.410;2022-08-19T00:08:43;17.60;99.90
5870;DHT22;2961;47.702;9.410;2022-08-19T00:11:11;17.60;99.90
5870;DHT22;2961;47.702;9.410;2022-08-19T00:13:38;17.60;99.90
5870;DHT22;2961;47.702;9.410;2022-08-19T00:16:05;17.60;99.90
5870;DHT22;2961;47.702;9.410;2022-08-19T00:18:32;17.50;99.90
5870;DHT22;2961;47.702;9.410;2022-08-19T00:21:01;17.50;99.90
5870;DHT22;2961;47.702;9.410;2022-08-19T00:23:28;17.50;99.90
5870;DHT22;2961;47.702;9.410;2022-08-19T00:25:55;17.50;99.90
5870;DHT22;2961;47.702;9.410;2022-08-19T00:28:22;17.40;99.90
5870;DHT22;2961;47.702;9.410;2022-08-19T00:30:49;17.40;99.90
5870;DHT22;2961;47.702;9.410;2022-08-19T00:33:17;17.40;99.90
5870;DHT22;2961;47.702;9.410;2022-08-19T00:35:44;17.40;99.90
5870;DHT22;2961;47.702;9.410;2022-08-19T00:38:12;17.40;99.90
5870;DHT22;2961;47.702;9.410;2022-08-19T00:40:39;17.30;99.90
5870;DHT22;2961;47.702;9.410;2022-08-19T00:43:09;17.40;99.90
5870;DHT22;2961;47.702;9.410;2022-08-19T00:45:36;17.30;99.90
5870;DHT22;2961;47.702;9.410;2022-08-19T00:48:03;17.30;99.90
5870;DHT22;2961;47.702;9.410;2022-08-19T00:50:31;17.30;99.90
5870;DHT22;2961;47.702;9.410;2022-08-19T00:52:58;17.30;99.90
5870;DHT22;2961;47.702;9.410;2022-08-19T00:55:27;17.30;99.90
5870;DHT22;2961;47.702;9.410;2022-08-19T00:57:58;17.30;99.90
5870;DHT22;2961;47.702;9.410;2022-08-19T01:00:27;17.30;99.90
5870;DHT22;2961;47.702;9.410;2022-08-19T01:02:55;17.30;99.90
5870;DHT22;2961;47.702;9.410;2022-08-19T01:05:24;17.30;99.90
5870;DHT22;2961;47.702;9.410;2022-08-19T01:07:53;17.30;99.90
5870;DHT22;2961;47.702;9.410;2022-08-19T01:10:24;17.30;99.90
5870;DHT22;2961;47.702;9.410;2022-08-19T01:12:54;17.20;99.90
5870;DHT22;2961;47.702;9.410;2022-08-19T01:15:29;17.20;99.90
5870;DHT22;2961;47.702;9.410;2022-08-19T01:17:57;17.20;99.90
5870;DHT22;2961;47.702;9.410;2022-08-19T01:20:25;17.20;99.90
5870;DHT22;2961;47.702;9.410;2022-08-19T01:22:56;17.20;99.90
5870;DHT22;2961;47.702;9.410;2022-08-19T01:25:27;17.20;99.90
5870;DHT22;2961;47.702;9.410;2022-08-19T01:27:55;17.20;99.90
5870;DHT22;2961;47.702;9.410;2022-08-19T01:30:26;17.20;99.90
5870;DHT22;2961;47.702;9.410;2022-08-19T01:32:54;17.20;99.90
5870;DHT22;2961;47.702;9.410;2022-08-19T01:35:23;17.20;99.90
5870;DHT22;2961;47.702;9.410;2022-08-19T01:37:53;17.20;99.90
5870;DHT22;2961;47.702;9.410;2022-08-19T01:40:24;17.20;99.90
5870;DHT22;2961;47.702;9.410;2022-08-19T01:42:52;17.20;99.90
5870;DHT22;2961;47.702;9.410;2022-08-19T01:45:20;17.20;99.90
5870;DHT22;2961;47.702;9.410;2022-08-19T01:47:48;17.30;99.90
5870;DHT22;2961;47.702;9.410;2022-08-19T01:50:15;17.30;99.90
5870;DHT22;2961;47.702;9.410;2022-08-19T01:52:43;17.30;99.90
5870;DHT22;2961;47.702;9.410;2022-08-19T01:55:14;17.20;99.90
5870;DHT22;2961;47.702;9.410;2022-08-19T01:57:44;17.20;99.90
5870;DHT22;2961;47.702;9.410;2022-08-19T02:00:15;17.20;99.90
5870;DHT22;2961;47.702;9.410;2022-08-19T02:02:43;17.20;99.90
5870;DHT22;2961;47.702;9.410;2022-08-19T02:05:11;17.20;99.90
5870;DHT22;2961;47.702;9.410;2022-08-19T02:07:39;17.20;99.90
5870;DHT22;2961;47.702;9.410;2022-08-19T02:10:09;17.20;99.90
5870;DHT22;2961;47.702;9.410;2022-08-19T02:12:38;17.20;99.90
5870;DHT22;2961;47.702;9.410;2022-08-19T02:15:05;17.20;99.90
5870;DHT22;2961;47.702;9.410;2022-08-19T02:17:33;17.20;99.90
5870;DHT22;2961;47.702;9.410;2022-08-19T02:20:00;17.20;99.90
5870;DHT22;2961;47.702;9.410;2022-08-19T02:22:27;17.10;99.90
5870;DHT22;2961;47.702;9.410;2022-08-19T02:24:54;17.10;99.90
5870;DHT22;2961;47.702;9.410;2022-08-19T02:27:22;17.10;99.90
5870;DHT22;2961;47.702;9.410;2022-08-19T02:29:51;17.10;99.90
5870;DHT22;2961;47.702;9.410;2022-08-19T02:32:18;17.10;99.90
5870;DHT22;2961;47.702;9.410;2022-08-19T02:34:46;17.10;99.90
5870;DHT22;2961;47.702;9.410;2022-08-19T02:37:13;17.10;99.90
5870;DHT22;2961;47.702;9.410;2022-08-19T02:39:54;17.10;99.90
5870;DHT22;2961;47.702;9.410;2022-08-19T02:42:21;17.10;99.90
5870;DHT22;2961;47.702;9.410;2022-08-19T02:44:49;17.20;99.90
5870;DHT22;2961;47.702;9.410;2022-08-19T02:47:17;17.20;99.90
5870;DHT22;2961;47.702;9.410;2022-08-19T02:49:44;17.20;99.90
5870;DHT22;2961;47.702;9.410;2022-08-19T02:52:11;17.20;99.90
5870;DHT22;2961;47.702;9.410;2022-08-19T02:54:38;17.20;99.90
5870;DHT22;2961;47.702;9.410;2022-08-19T02:57:05;17.30;99.90
5870;DHT22;2961;47.702;9.410;2022-08-19T02:59:33;17.30;99.90
5870;DHT22;2961;47.702;9.410;2022-08-19T03:02:02;17.30;99.90
5870;DHT22;2961;47.702;9.410;2022-08-19T03:04:29;17.30;99.90
5870;DHT22;2961;47.702;9.410;2022-08-19T03:06:56;17.30;99.90
5870;DHT22;2961;47.702;9.410;2022-08-19T03:09:23;17.30;99.90
5870;DHT22;2961;47.702;9.410;2022-08-19T03:11:49;17.30;99.90
5870;DHT22;2961;47.702;9.410;2022-08-19T03:14:16;17.30;99.90
5870;DHT22;2961;47.702;9.410;2022-08-19T03:16:46;17.30;99.90
5870;DHT22;2961;47.702;9.410;2022-08-19T03:19:16;17.30;99.90
5870;DHT22;2961;47.702;9.410;2022-08-19T03:21:44;17.40;99.90
5870;DHT22;2961;47.702;9.410;2022-08-19T03:24:12;17.30;99.90
5870;DHT22;2961;47.702;9.410;2022-08-19T03:26:39;17.30;99.90
5870;DHT22;2961;47.702;9.410;2022-08-19T03:29:07;17.20;99.90
5870;DHT22;2961;47.702;9.410;2022-08-19T03:31:34;17.30;99.90
5870;DHT22;2961;47.702;9.410;2022-08-19T03:34:02;17.30;99.90
5870;DHT22;2961;47.702;9.410;2022-08-19T03:36:31;17.30;99.90
5870;DHT22;2961;47.702;9.410;2022-08-19T03:38:59;17.30;99.90
5870;DHT22;2961;47.702;9.410;2022-08-19T03:41:29;17.40;99.90
5870;DHT22;2961;47.702;9.410;2022-08-19T03:43:57;17.40;99.90
5870;DHT22;2961;47.702;9.410;2022-08-19T03:46:25;17.40;99.90
5870;DHT22;2961;47.702;9.410;2022-08-19T03:48:55;17.50;99.90
5870;DHT22;2961;47.702;9.410;2022-08-19T03:51:26;17.50;99.90
5870;DHT22;2961;47.702;9.410;2022-08-19T03:53:55;17.40;99.90
5870;DHT22;2961;47.702;9.410;2022-08-19T03:56:22;17.40;99.90
5870;DHT22;2961;47.702;9.410;2022-08-19T03:58:50;17.40;99.90
5870;DHT22;2961;47.702;9.410;2022-08-19T04:01:21;17.50;99.90
5870;DHT22;2961;47.702;9.410;2022-08-19T04:03:48;17.50;99.90
5870;DHT22;2961;47.702;9.410;2022-08-19T04:06:17;17.50;99.90
5870;DHT22;2961;47.702;9.410;2022-08-19T04:08:47;17.50;99.90
5870;DHT22;2961;47.702;9.410;2022-08-19T04:11:17;17.50;99.90
5870;DHT22;2961;47.702;9.410;2022-08-19T04:13:46;17.40;99.90
5870;DHT22;2961;47.702;9.410;2022-08-19T04:16:13;17.40;99.90
5870;DHT22;2961;47.702;9.410;2022-08-19T04:18:40;17.40;99.90
5870;DHT22;2961;47.702;9.410;2022-08-19T04:21:08;17.40;99.90
5870;DHT22;2961;47.702;9.410;2022-08-19T04:23:41;17.40;99.90
5870;DHT22;2961;47.702;9.410;2022-08-19T04:26:12;17.40;99.90
5870;DHT22;2961;47.702;9.410;2022-08-19T04:28:41;17.40;99.90
5870;DHT22;2961;47.702;9.410;2022-08-19T04:31:12;17.40;99.90
5870;DHT22;2961;47.702;9.410;2022-08-19T04:33:40;17.40;99.90
5870;DHT22;2961;47.702;9.410;2022-08-19T04:36:07;17.40;99.90
5870;DHT22;2961;47.702;9.410;2022-08-19T04:38:35;17.40;99.90
5870;DHT22;2961;47.702;9.410;2022-08-19T04:41:03;17.40;99.90
5870;DHT22;2961;47.702;9.410;2022-08-19T04:44:04;17.40;99.90
5870;DHT22;2961;47.702;9.410;2022-08-19T04:46:31;17.40;99.90
5870;DHT22;2961;47.702;9.410;2022-08-19T04:48:58;17.40;99.90
5870;DHT22;2961;47.702;9.410;2022-08-19T04:51:25;17.40;99.90
5870;DHT22;2961;47.702;9.410;2022-08-19T04:53:52;17.40;99.90
5870;DHT22;2961;47.702;9.410;2022-08-19T04:56:20;17.50;99.90
5870;DHT22;2961;47.702;9.410;2022-08-19T04:58:49;17.50;99.90
5870;DHT22;2961;47.702;9.410;2022-08-19T05:01:21;17.50;99.90
5870;DHT22;2961;47.702;9.410;2022-08-19T05:03:49;17.50;99.90
5870;DHT22;2961;47.702;9.410;2022-08-19T05:06:18;17.50;99.90
5870;DHT22;2961;47.702;9.410;2022-08-19T05:08:45;17.50;99.90
5870;DHT22;2961;47.702;9.410;2022-08-19T05:11:15;17.50;99.90
5870;DHT22;2961;47.702;9.410;2022-08-19T05:13:43;17.50;99.90
5870;DHT22;2961;47.702;9.410;2022-08-19T05:16:12;17.50;99.90
5870;DHT22;2961;47.702;9.410;2022-08-19T05:18:41;17.50;99.90
5870;DHT22;2961;47.702;9.410;2022-08-19T05:21:27;17.50;99.90
5870;DHT22;2961;47.702;9.410;2022-08-19T05:24:12;17.50;99.90
5870;DHT22;2961;47.702;9.410;2022-08-19T05:26:41;17.50;99.90
5870;DHT22;2961;47.702;9.410;2022-08-19T05:29:09;17.50;99.90
5870;DHT22;2961;47.702;9.410;2022-08-19T05:31:37;17.50;99.90
5870;DHT22;2961;47.702;9.410;2022-08-19T05:34:06;17.50;99.90
5870;DHT22;2961;47.702;9.410;2022-08-19T05:36:35;17.60;99.90
5870;DHT22;2961;47.702;9.410;2022-08-19T05:39:05;17.60;99.90
5870;DHT22;2961;47.702;9.410;2022-08-19T05:41:32;17.60;99.90
5870;DHT22;2961;47.702;9.410;2022-08-19T05:44:02;17.60;99.90
5870;DHT22;2961;47.702;9.410;2022-08-19T05:46:31;17.60;99.90
5870;DHT22;2961;47.702;9.410;2022-08-19T05:48:58;17.60;99.90
5870;DHT22;2961;47.702;9.410;2022-08-19T05:51:26;17.60;99.90
5870;DHT22;2961;47.702;9.410;2022-08-19T05:53:53;17.60;99.90
5870;DHT22;2961;47.702;9.410;2022-08-19T05:56:20;17.60;99.90
5870;DHT22;2961;47.702;9.410;2022-08-19T05:58:47;17.60;99.90
5870;DHT22;2961;47.702;9.410;2022-08-19T06:01:17;17.60;99.90
5870;DHT22;2961;47.702;9.410;2022-08-19T06:03:45;17.60;99.90
5870;DHT22;2961;47.702;9.410;2022-08-19T06:06:17;17.60;99.90
5870;DHT22;2961;47.702;9.410;2022-08-19T06:08:46;17.60;99.90
5870;DHT22;2961;47.702;9.410;2022-08-19T06:11:18;17.60;99.90
5870;DHT22;2961;47.702;9.410;2022-08-19T06:13:48;17.60;99.90
5870;DHT22;2961;47.702;9.410;2022-08-19T06:16:16;17.60;99.90
5870;DHT22;2961;47.702;9.410;2022-08-19T06:18:48;17.60;99.90
5870;DHT22;2961;47.702;9.410;2022-08-19T06:21:15;17.60;99.90
5870;DHT22;2961;47.702;9.410;2022-08-19T06:23:42;17.70;99.90
5870;DHT22;2961;47.702;9.410;2022-08-19T06:26:13;17.60;99.90
5870;DHT22;2961;47.702;9.410;2022-08-19T06:28:40;17.70;99.90
5870;DHT22;2961;47.702;9.410;2022-08-19T06:31:12;17.70;99.90
5870;DHT22;2961;47.702;9.410;2022-08-19T06:33:39;17.70;99.90
5870;DHT22;2961;47.702;9.410;2022-08-19T06:36:06;17.70;99.90
5870;DHT22;2961;47.702;9.410;2022-08-19T06:38:34;17.70;99.90
5870;DHT22;2961;47.702;9.410;2022-08-19T06:41:02;17.70;99.90
5870;DHT22;2961;47.702;9.410;2022-08-19T06:43:30;17.70;99.90
5870;DHT22;2961;47.702;9.410;2022-08-19T06:45:57;17.70;99.90
5870;DHT22;2961;47.702;9.410;2022-08-19T06:48:24;17.70;99.90
5870;DHT22;2961;47.702;9.410;2022-08-19T06:50:51;17.70;99.90
5870;DHT22;2961;47.702;9.410;2022-08-19T06:53:18;17.70;99.90
5870;DHT22;2961;47.702;9.410;2022-08-19T06:55:45;17.70;99.90
5870;DHT22;2961;47.702;9.410;2022-08-19T06:58:12;17.70;99.90
5870;DHT22;2961;47.702;9.410;2022-08-19T07:00:40;17.70;99.90
5870;DHT22;2961;47.702;9.410;2022-08-19T07:03:07;17.60;99.90
5870;DHT22;2961;47.702;9.410;2022-08-19T07:05:38;17.60;99.90
5870;DHT22;2961;47.702;9.410;2022-08-19T07:08:05;17.60;99.90
5870;DHT22;2961;47.702;9.410;2022-08-19T07:10:33;17.60;99.90
5870;DHT22;2961;47.702;9.410;2022-08-19T07:13:00;17.60;99.90
5870;DHT22;2961;47.702;9.410;2022-08-19T07:15:27;17.60;99.90
5870;DHT22;2961;47.702;9.410;2022-08-19T07:17:55;17.60;99.90
5870;DHT22;2961;47.702;9.410;2022-08-19T07:20:22;17.60;99.90
5870;DHT22;2961;47.702;9.410;2022-08-19T07:22:50;17.60;99.90
5870;DHT22;2961;47.702;9.410;2022-08-19T07:25:16;17.60;99.90
5870;DHT22;2961;47.702;9.410;2022-08-19T07:27:44;17.70;99.90
5870;DHT22;2961;47.702;9.410;2022-08-19T07:30:11;17.70;99.90
5870;DHT22;2961;47.702;9.410;2022-08-19T07:32:38;17.60;99.90
5870;DHT22;2961;47.702;9.410;2022-08-19T07:35:08;17.60;99.90
5870;DHT22;2961;47.702;9.410;2022-08-19T07:37:35;17.60;99.90
5870;DHT22;2961;47.702;9.410;2022-08-19T07:40:04;17.60;99.90
5870;DHT22;2961;47.702;9.410;2022-08-19T07:42:32;17.70;99.90
5870;DHT22;2961;47.702;9.410;2022-08-19T07:44:58;17.60;99.90
5870;DHT22;2961;47.702;9.410;2022-08-19T07:47:26;17.60;99.90
5870;DHT22;2961;47.702;9.410;2022-08-19T07:49:53;17.70;99.90
5870;DHT22;2961;47.702;9.410;2022-08-19T07:52:22;17.70;99.90
5870;DHT22;2961;47.702;9.410;2022-08-19T07:54:49;17.70;99.90
5870;DHT22;2961;47.702;9.410;2022-08-19T07:57:16;17.70;99.90
5870;DHT22;2961;47.702;9.410;2022-08-19T07:59:44;17.70;99.90
5870;DHT22;2961;47.702;9.410;2022-08-19T08:02:11;17.70;99.90
5870;DHT22;2961;47.702;9.410;2022-08-19T08:04:38;17.70;99.90
5870;DHT22;2961;47.702;9.410;2022-08-19T08:07:23;17.70;99.90
5870;DHT22;2961;47.702;9.410;2022-08-19T08:10:08;17.70;99.90
5870;DHT22;2961;47.702;9.410;2022-08-19T08:12:38;17.80;99.90
5870;DHT22;2961;47.702;9.410;2022-08-19T08:15:09;17.80;99.90
5870;DHT22;2961;47.702;9.410;2022-08-19T08:17:36;17.80;99.90
5870;DHT22;2961;47.702;9.410;2022-08-19T08:20:04;17.80;99.90
5870;DHT22;2961;47.702;9.410;2022-08-19T08:22:34;17.80;99.90
5870;DHT22;2961;47.702;9.410;2022-08-19T08:25:21;17.80;99.90
5870;DHT22;2961;47.702;9.410;2022-08-19T08:27:48;17.80;99.90
5870;DHT22;2961;47.702;9.410;2022-08-19T08:30:19;17.80;99.90
5870;DHT22;2961;47.702;9.410;2022-08-19T08:32:46;17.80;99.90
5870;DHT22;2961;47.702;9.410;2022-08-19T08:35:15;17.80;99.90
5870;DHT22;2961;47.702;9.410;2022-08-19T08:37:44;17.80;99.90
5870;DHT22;2961;47.702;9.410;2022-08-19T08:40:18;17.80;99.90
5870;DHT22;2961;47.702;9.410;2022-08-19T08:42:51;17.80;99.90
5870;DHT22;2961;47.702;9.410;2022-08-19T08:45:24;17.80;99.90
5870;DHT22;2961;47.702;9.410;2022-08-19T08:47:53;17.80;99.90
5870;DHT22;2961;47.702;9.410;2022-08-19T08:50:25;17.90;99.90
5870;DHT22;2961;47.702;9.410;2022-08-19T08:52:57;17.80;99.90
5870;DHT22;2961;47.702;9.410;2022-08-19T08:55:27;17.90;99.90
5870;DHT22;2961;47.702;9.410;2022-08-19T08:57:59;17.80;99.90
5870;DHT22;2961;47.702;9.410;2022-08-19T09:00:28;17.90;99.90
5870;DHT22;2961;47.702;9.410;2022-08-19T09:02:57;17.90;99.90
5870;DHT22;2961;47.702;9.410;2022-08-19T09:05:27;17.90;99.90
5870;DHT22;2961;47.702;9.410;2022-08-19T09:08:00;17.90;99.90
5870;DHT22;2961;47.702;9.410;2022-08-19T09:10:33;17.90;99.90
5870;DHT22;2961;47.702;9.410;2022-08-19T09:13:07;18.00;99.90
5870;DHT22;2961;47.702;9.410;2022-08-19T09:15:42;17.90;99.90
5870;DHT22;2961;47.702;9.410;2022-08-19T09:18:11;18.00;99.90
5870;DHT22;2961;47.702;9.410;2022-08-19T09:20:38;17.90;99.90
5870;DHT22;2961;47.702;9.410;2022-08-19T09:23:06;17.90;99.90
5870;DHT22;2961;47.702;9.410;2022-08-19T09:25:33;18.00;99.90
5870;DHT22;2961;47.702;9.410;2022-08-19T09:28:01;17.90;99.90
5870;DHT22;2961;47.702;9.410;2022-08-19T09:30:30;17.90;99.90
5870;DHT22;2961;47.702;9.410;2022-08-19T09:32:59;17.90;99.90
5870;DHT22;2961;47.702;9.410;2022-08-19T09:35:28;18.00;99.90
5870;DHT22;2961;47.702;9.410;2022-08-19T09:37:55;17.80;99.90
5870;DHT22;2961;47.702;9.410;2022-08-19T09:40:24;17.80;99.90
5870;DHT22;2961;47.702;9.410;2022-08-19T09:42:51;17.80;99.90
5870;DHT22;2961;47.702;9.410;2022-08-19T09:45:20;17.70;99.90
5870;DHT22;2961;47.702;9.410;2022-08-19T09:47:47;17.70;99.90
5870;DHT22;2961;47.702;9.410;2022-08-19T09:50:16;17.70;99.90
5870;DHT22;2961;47.702;9.410;2022-08-19T09:52:43;17.70;99.90
5870;DHT22;2961;47.702;9.410;2022-08-19T09:55:11;17.70;99.90
5870;DHT22;2961;47.702;9.410;2022-08-19T09:57:39;17.60;99.90
5870;DHT22;2961;47.702;9.410;2022-08-19T10:00:08;17.70;99.90
5870;DHT22;2961;47.702;9.410;2022-08-19T10:02:36;17.70;99.90
5870;DHT22;2961;47.702;9.410;2022-08-19T10:05:03;17.70;99.90
5870;DHT22;2961;47.702;9.410;2022-08-19T10:07:48;17.70;99.90
5870;DHT22;2961;47.702;9.410;2022-08-19T10:10:15;17.70;99.90
5870;DHT22;2961;47.702;9.410;2022-08-19T10:12:43;17.60;99.90
5870;DHT22;2961;47.702;9.410;2022-08-19T10:15:12;17.60;99.90
5870;DHT22;2961;47.702;9.410;2022-08-19T10:17:40;17.60;99.90
5870;DHT22;2961;47.702;9.410;2022-08-19T10:20:07;17.60;99.90
5870;DHT22;2961;47.702;9.410;2022-08-19T10:22:34;17.50;99.90
5870;DHT22;2961;47.702;9.410;2022-08-19T10:25:04;17.50;99.90
5870;DHT22;2961;47.702;9.410;2022-08-19T10:27:31;17.40;99.90
5870;DHT22;2961;47.702;9.410;2022-08-19T10:29:59;17.40;99.90
5870;DHT22;2961;47.702;9.410;2022-08-19T10:32:26;17.40;99.90
5870;DHT22;2961;47.702;9.410;2022-08-19T10:34:54;17.40;99.90
5870;DHT22;2961;47.702;9.410;2022-08-19T10:37:21;17.50;99.90
5870;DHT22;2961;47.702;9.410;2022-08-19T10:39:48;17.50;99.90
5870;DHT22;2961;47.702;9.410;2022-08-19T10:42:37;17.50;99.90
5870;DHT22;2961;47.702;9.410;2022-08-19T10:45:06;17.50;99.90
5870;DHT22;2961;47.702;9.410;2022-08-19T10:47:35;17.60;99.90
5870;DHT22;2961;47.702;9.410;2022-08-19T10:50:03;17.60;99.90
5870;DHT22;2961;47.702;9.410;2022-08-19T10:52:49;17.60;99.90
5870;DHT22;2961;47.702;9.410;2022-08-19T10:55:18;17.60;99.90
5870;DHT22;2961;47.702;9.410;2022-08-19T10:58:02;17.60;99.90
5870;DHT22;2961;47.702;9.410;2022-08-19T11:00:30;17.60;99.90
5870;DHT22;2961;47.702;9.410;2022-08-19T11:03:12;17.60;99.90
5870;DHT22;2961;47.702;9.410;2022-08-19T11:05:39;17.60;99.90
5870;DHT22;2961;47.702;9.410;2022-08-19T11:08:06;17.70;99.90
5870;DHT22;2961;47.702;9.410;2022-08-19T11:10:41;17.60;99.90
5870;DHT22;2961;47.702;9.410;2022-08-19T11:13:08;17.60;99.90
5870;DHT22;2961;47.702;9.410;2022-08-19T11:15:36;17.60;99.90
5870;DHT22;2961;47.702;9.410;2022-08-19T11:18:03;17.60;99.90
5870;DHT22;2961;47.702;9.410;2022-08-19T11:20:31;17.60;99.90
5870;DHT22;2961;47.702;9.410;2022-08-19T11:22:58;17.60;99.90
5870;DHT22;2961;47.702;9.410;2022-08-19T11:25:25;17.60;99.90
5870;DHT22;2961;47.702;9.410;2022-08-19T11:27:51;17.60;99.90
5870;DHT22;2961;47.702;9.410;2022-08-19T11:30:18;17.60;99.90
5870;DHT22;2961;47.702;9.410;2022-08-19T11:32:46;17.60;99.90
5870;DHT22;2961;47.702;9.410;2022-08-19T11:35:13;17.60;99.90
5870;DHT22;2961;47.702;9.410;2022-08-19T11:37:41;17.70;99.90
5870;DHT22;2961;47.702;9.410;2022-08-19T11:40:09;17.70;99.90
5870;DHT22;2961;47.702;9.410;2022-08-19T11:42:36;17.70;99.90
5870;DHT22;2961;47.702;9.410;2022-08-19T11:45:21;17.70;99.90
5870;DHT22;2961;47.702;9.410;2022-08-19T11:47:50;17.70;99.90
5870;DHT22;2961;47.702;9.410;2022-08-19T11:50:17;17.70;99.90
5870;DHT22;2961;47.702;9.410;2022-08-19T11:52:44;17.70;99.90
5870;DHT22;2961;47.702;9.410;2022-08-19T11:55:11;17.70;99.90
5870;DHT22;2961;47.702;9.410;2022-08-19T11:57:39;17.70;99.90
5870;DHT22;2961;47.702;9.410;2022-08-19T12:00:07;17.70;99.90
5870;DHT22;2961;47.702;9.410;2022-08-19T12:02:35;17.80;99.90
5870;DHT22;2961;47.702;9.410;2022-08-19T12:05:04;17.80;99.90
5870;DHT22;2961;47.702;9.410;2022-08-19T12:07:31;17.80;99.90
5870;DHT22;2961;47.702;9.410;2022-08-19T12:09:59;17.80;99.90
5870;DHT22;2961;47.702;9.410;2022-08-19T12:12:26;17.90;99.90
5870;DHT22;2961;47.702;9.410;2022-08-19T12:14:53;17.90;99.90
5870;DHT22;2961;47.702;9.410;2022-08-19T12:17:24;17.90;99.90
5870;DHT22;2961;47.702;9.410;2022-08-19T12:19:51;17.90;99.90
5870;DHT22;2961;47.702;9.410;2022-08-19T12:22:19;17.90;99.90
5870;DHT22;2961;47.702;9.410;2022-08-19T12:25:05;18.00;99.90
5870;DHT22;2961;47.702;9.410;2022-08-19T12:27:32;18.00;99.90
5870;DHT22;2961;47.702;9.410;2022-08-19T12:29:59;18.00;99.90
5870;DHT22;2961;47.702;9.410;2022-08-19T12:32:27;18.00;99.90
5870;DHT22;2961;47.702;9.410;2022-08-19T12:34:54;18.00;99.90
5870;DHT22;2961;47.702;9.410;2022-08-19T12:37:22;18.10;99.90
5870;DHT22;2961;47.702;9.410;2022-08-19T12:39:49;18.10;99.90
5870;DHT22;2961;47.702;9.410;2022-08-19T12:42:16;18.10;99.90
5870;DHT22;2961;47.702;9.410;2022-08-19T12:44:44;18.10;99.90
5870;DHT22;2961;47.702;9.410;2022-08-19T12:47:12;18.10;99.90
5870;DHT22;2961;47.702;9.410;2022-08-19T12:49:40;18.10;99.90
5870;DHT22;2961;47.702;9.410;2022-08-19T12:52:08;18.10;99.90
5870;DHT22;2961;47.702;9.410;2022-08-19T12:54:37;18.10;99.90
5870;DHT22;2961;47.702;9.410;2022-08-19T12:57:05;18.10;99.90
5870;DHT22;2961;47.702;9.410;2022-08-19T12:59:33;18.10;99.90
5870;DHT22;2961;47.702;9.410;2022-08-19T13:02:03;18.20;99.90
5870;DHT22;2961;47.702;9.410;2022-08-19T13:04:31;18.20;99.90
5870;DHT22;2961;47.702;9.410;2022-08-19T13:07:00;18.30;99.90
5870;DHT22;2961;47.702;9.410;2022-08-19T13:09:27;18.30;99.90
5870;DHT22;2961;47.702;9.410;2022-08-19T13:11:55;18.40;99.90
5870;DHT22;2961;47.702;9.410;2022-08-19T13:14:22;18.40;99.90
5870;DHT22;2961;47.702;9.410;2022-08-19T13:16:49;18.50;99.90
5870;DHT22;2961;47.702;9.410;2022-08-19T13:19:16;18.50;99.90
5870;DHT22;2961;47.702;9.410;2022-08-19T13:21:49;18.50;99.90
5870;DHT22;2961;47.702;9.410;2022-08-19T13:24:16;18.50;99.90
5870;DHT22;2961;47.702;9.410;2022-08-19T13:26:43;18.60;99.90
5870;DHT22;2961;47.702;9.410;2022-08-19T13:29:11;18.60;99.90
5870;DHT22;2961;47.702;9.410;2022-08-19T13:31:56;18.50;99.90
5870;DHT22;2961;47.702;9.410;2022-08-19T13:34:40;18.50;99.90
5870;DHT22;2961;47.702;9.410;2022-08-19T13:37:07;18.50;99.90
5870;DHT22;2961;47.702;9.410;2022-08-19T13:39:35;18.50;99.90
5870;DHT22;2961;47.702;9.410;2022-08-19T13:42:02;18.50;99.90
5870;DHT22;2961;47.702;9.410;2022-08-19T13:44:31;18.50;99.90
5870;DHT22;2961;47.702;9.410;2022-08-19T13:47:00;18.50;99.90
5870;DHT22;2961;47.702;9.410;2022-08-19T13:49:31;18.50;99.90
5870;DHT22;2961;47.702;9.410;2022-08-19T13:51:58;18.60;99.90
5870;DHT22;2961;47.702;9.410;2022-08-19T13:54:25;18.50;99.90
5870;DHT22;2961;47.702;9.410;2022-08-19T13:56:52;18.50;99.90
5870;DHT22;2961;47.702;9.410;2022-08-19T13:59:19;18.50;99.90
5870;DHT22;2961;47.702;9.410;2022-08-19T14:01:47;18.50;99.90
5870;DHT22;2961;47.702;9.410;2022-08-19T14:04:15;18.40;99.90
5870;DHT22;2961;47.702;9.410;2022-08-19T14:06:42;18.40;99.90
5870;DHT22;2961;47.702;9.410;2022-08-19T14:09:09;18.40;99.90
5870;DHT22;2961;47.702;9.410;2022-08-19T14:11:35;18.40;99.90
5870;DHT22;2961;47.702;9.410;2022-08-19T14:14:03;18.30;99.90
5870;DHT22;2961;47.702;9.410;2022-08-19T14:16:30;18.30;99.90
5870;DHT22;2961;47.702;9.410;2022-08-19T14:18:58;18.30;99.90
5870;DHT22;2961;47.702;9.410;2022-08-19T14:21:25;18.20;99.90
5870;DHT22;2961;47.702;9.410;2022-08-19T14:23:52;18.20;99.90
5870;DHT22;2961;47.702;9.410;2022-08-19T14:26:20;18.20;99.90
5870;DHT22;2961;47.702;9.410;2022-08-19T14:28:48;18.20;99.90
5870;DHT22;2961;47.702;9.410;2022-08-19T14:31:16;18.10;99.90
5870;DHT22;2961;47.702;9.410;2022-08-19T14:33:45;18.10;99.90
5870;DHT22;2961;47.702;9.410;2022-08-19T14:36:14;18.10;99.90
5870;DHT22;2961;47.702;9.410;2022-08-19T14:38:40;18.10;99.90
5870;DHT22;2961;47.702;9.410;2022-08-19T14:41:10;18.10;99.90
5870;DHT22;2961;47.702;9.410;2022-08-19T14:43:38;18.10;99.90
5870;DHT22;2961;47.702;9.410;2022-08-19T14:46:06;18.10;99.90
5870;DHT22;2961;47.702;9.410;2022-08-19T14:48:33;18.10;99.90
5870;DHT22;2961;47.702;9.410;2022-08-19T14:51:01;18.10;99.90
5870;DHT22;2961;47.702;9.410;2022-08-19T14:53:30;18.10;99.90
5870;DHT22;2961;47.702;9.410;2022-08-19T14:55:59;18.10;99.90
5870;DHT22;2961;47.702;9.410;2022-08-19T14:58:27;18.10;99.90
5870;DHT22;2961;47.702;9.410;2022-08-19T15:00:54;18.10;99.90
5870;DHT22;2961;47.702;9.410;2022-08-19T15:03:21;18.10;99.90
5870;DHT22;2961;47.702;9.410;2022-08-19T15:05:48;18.10;99.90
5870;DHT22;2961;47.702;9.410;2022-08-19T15:08:15;18.10;99.90
5870;DHT22;2961;47.702;9.410;2022-08-19T15:10:43;18.10;99.90
5870;DHT22;2961;47.702;9.410;2022-08-19T15:13:12;18.10;99.90
5870;DHT22;2961;47.702;9.410;2022-08-19T15:15:40;18.10;99.90
5870;DHT22;2961;47.702;9.410;2022-08-19T15:18:06;18.10;99.90
5870;DHT22;2961;47.702;9.410;2022-08-19T15:20:34;18.10;99.90
5870;DHT22;2961;47.702;9.410;2022-08-19T15:23:01;18.10;99.90
5870;DHT22;2961;47.702;9.410;2022-08-19T15:25:30;18.10;99.90
5870;DHT22;2961;47.702;9.410;2022-08-19T15:27:59;18.10;99.90
5870;DHT22;2961;47.702;9.410;2022-08-19T15:30:27;18.10;99.90
5870;DHT22;2961;47.702;9.410;2022-08-19T15:33:07;18.10;99.90
5870;DHT22;2961;47.702;9.410;2022-08-19T15:35:34;18.10;99.90
5870;DHT22;2961;47.702;9.410;2022-08-19T15:38:01;18.20;99.90
5870;DHT22;2961;47.702;9.410;2022-08-19T15:40:28;18.20;99.90
5870;DHT22;2961;47.702;9.410;2022-08-19T15:42:55;18.20;99.90
5870;DHT22;2961;47.702;9.410;2022-08-19T15:45:24;18.20;99.90
5870;DHT22;2961;47.702;9.410;2022-08-19T15:47:57;18.20;99.90
5870;DHT22;2961;47.702;9.410;2022-08-19T15:50:24;18.20;99.90
5870;DHT22;2961;47.702;9.410;2022-08-19T15:52:53;18.10;99.90
5870;DHT22;2961;47.702;9.410;2022-08-19T15:55:21;18.10;99.90
5870;DHT22;2961;47.702;9.410;2022-08-19T15:57:48;18.10;99.90
5870;DHT22;2961;47.702;9.410;2022-08-19T16:00:34;18.10;99.90
5870;DHT22;2961;47.702;9.410;2022-08-19T16:03:18;18.00;99.90
5870;DHT22;2961;47.702;9.410;2022-08-19T16:06:03;18.00;99.90
5870;DHT22;2961;47.702;9.410;2022-08-19T16:08:58;18.00;99.90
5870;DHT22;2961;47.702;9.410;2022-08-19T16:11:29;17.90;99.90
5870;DHT22;2961;47.702;9.410;2022-08-19T16:13:57;17.90;99.90